sensor_id;sensor_type;location;lat;lon;timestamp;P1;durP1;ratioP1;P2;durP2;ratioP2
58240;SDS011;45058;55.772;38.224;2024-01-30T00:02:15;22.30;;;11.83;;
58240;SDS011;45058;55.772;38.224;2024-01-30T00:04:41;19.80;;;12.40;;
58240;SDS011;45058;55.772;38.224;2024-01-30T00:07:07;23.00;;;12.97;;
58240;SDS011;45058;55.772;38.224;2024-01-30T00:09:33;21.60;;;12.47;;
58240;SDS011;45058;55.772;38.224;2024-01-30T00:11:59;20.47;;;13.00;;
58240;SDS011;45058;55.772;38.224;2024-01-30T00:14:26;24.50;;;12.17;;
58240;SDS011;45058;55.772;38.224;2024-01-30T00:16:52;21.97;;;12.27;;
58240;SDS011;45058;55.772;38.224;2024-01-30T00:19:18;25.40;;;14.00;;
58240;SDS011;45058;55.772;38.224;2024-01-30T00:21:44;20.07;;;12.23;;
58240;SDS011;45058;55.772;38.224;2024-01-30T00:24:10;22.47;;;13.80;;
58240;SDS011;45058;55.772;38.224;2024-01-30T00:26:36;24.43;;;13.53;;
58240;SDS011;45058;55.772;38.224;2024-01-30T00:29:02;25.87;;;14.33;;
58240;SDS011;45058;55.772;38.224;2024-01-30T00:31:29;22.53;;;12.90;;
58240;SDS011;45058;55.772;38.224;2024-01-30T00:33:55;21.60;;;13.20;;
58240;SDS011;45058;55.772;38.224;2024-01-30T00:36:21;23.53;;;13.47;;
58240;SDS011;45058;55.772;38.224;2024-01-30T00:38:47;23.97;;;14.07;;
58240;SDS011;45058;55.772;38.224;2024-01-30T00:41:13;20.93;;;11.63;;
58240;SDS011;45058;55.772;38.224;2024-01-30T00:43:40;20.33;;;11.97;;
58240;SDS011;45058;55.772;38.224;2024-01-30T00:46:06;20.23;;;12.20;;
58240;SDS011;45058;55.772;38.224;2024-01-30T00:48:32;20.03;;;12.43;;
58240;SDS011;45058;55.772;38.224;2024-01-30T00:50:58;22.97;;;12.43;;
58240;SDS011;45058;55.772;38.224;2024-01-30T00:53:24;20.73;;;13.07;;
58240;SDS011;45058;55.772;38.224;2024-01-30T00:55:50;23.00;;;12.30;;
58240;SDS011;45058;55.772;38.224;2024-01-30T00:58:17;18.77;;;10.97;;
58240;SDS011;45058;55.772;38.224;2024-01-30T01:00:45;18.33;;;10.70;;
58240;SDS011;45058;55.772;38.224;2024-01-30T01:03:11;21.60;;;12.47;;
58240;SDS011;45058;55.772;38.224;2024-01-30T01:05:37;20.57;;;11.77;;
58240;SDS011;45058;55.772;38.224;2024-01-30T01:08:04;18.87;;;11.40;;
58240;SDS011;45058;55.772;38.224;2024-01-30T01:10:30;18.20;;;12.03;;
58240;SDS011;45058;55.772;38.224;2024-01-30T01:12:57;16.73;;;11.47;;
58240;SDS011;45058;55.772;38.224;2024-01-30T01:15:23;21.73;;;11.33;;
58240;SDS011;45058;55.772;38.224;2024-01-30T01:17:49;19.13;;;10.77;;
58240;SDS011;45058;55.772;38.224;2024-01-30T01:20:15;18.40;;;12.00;;
58240;SDS011;45058;55.772;38.224;2024-01-30T01:22:41;15.17;;;9.67;;
58240;SDS011;45058;55.772;38.224;2024-01-30T01:25:08;16.00;;;10.90;;
58240;SDS011;45058;55.772;38.224;2024-01-30T01:27:36;15.60;;;10.37;;
58240;SDS011;45058;55.772;38.224;2024-01-30T01:30:07;16.30;;;9.60;;
58240;SDS011;45058;55.772;38.224;2024-01-30T01:32:35;16.50;;;10.00;;
58240;SDS011;45058;55.772;38.224;2024-01-30T01:35:02;14.97;;;9.77;;
58240;SDS011;45058;55.772;38.224;2024-01-30T01:37:31;16.20;;;10.83;;
58240;SDS011;45058;55.772;38.224;2024-01-30T01:39:57;15.33;;;9.53;;
58240;SDS011;45058;55.772;38.224;2024-01-30T01:42:23;14.27;;;9.33;;
58240;SDS011;45058;55.772;38.224;2024-01-30T01:44:49;15.37;;;9.83;;
58240;SDS011;45058;55.772;38.224;2024-01-30T01:47:16;15.73;;;9.17;;
58240;SDS011;45058;55.772;38.224;2024-01-30T01:49:42;15.67;;;9.70;;
58240;SDS011;45058;55.772;38.224;2024-01-30T01:52:08;16.67;;;9.73;;
58240;SDS011;45058;55.772;38.224;2024-01-30T01:54:35;17.17;;;9.03;;
58240;SDS011;45058;55.772;38.224;2024-01-30T01:57:02;17.37;;;10.40;;
58240;SDS011;45058;55.772;38.224;2024-01-30T01:59:28;16.30;;;10.03;;
58240;SDS011;45058;55.772;38.224;2024-01-30T02:01:55;15.50;;;9.97;;
58240;SDS011;45058;55.772;38.224;2024-01-30T02:04:21;15.50;;;9.90;;
58240;SDS011;45058;55.772;38.224;2024-01-30T02:06:47;15.23;;;9.97;;
58240;SDS011;45058;55.772;38.224;2024-01-30T02:09:13;15.57;;;9.53;;
58240;SDS011;45058;55.772;38.224;2024-01-30T02:11:40;16.40;;;9.83;;
58240;SDS011;45058;55.772;38.224;2024-01-30T18:50:57;79.40;;;41.83;;
58240;SDS011;45058;55.772;38.224;2024-01-30T18:53:25;66.37;;;34.73;;
58240;SDS011;45058;55.772;38.224;2024-01-30T18:55:51;62.43;;;30.43;;
58240;SDS011;45058;55.772;38.224;2024-01-30T18:58:18;59.57;;;28.77;;
58240;SDS011;45058;55.772;38.224;2024-01-30T19:00:44;62.13;;;28.17;;
58240;SDS011;45058;55.772;38.224;2024-01-30T19:03:10;63.20;;;26.97;;
58240;SDS011;45058;55.772;38.224;2024-01-30T19:05:37;62.90;;;30.40;;
58240;SDS011;45058;55.772;38.224;2024-01-30T19:08:03;63.70;;;30.50;;
58240;SDS011;45058;55.772;38.224;2024-01-30T19:10:30;65.33;;;30.37;;
58240;SDS011;45058;55.772;38.224;2024-01-30T19:12:56;75.43;;;31.90;;
58240;SDS011;45058;55.772;38.224;2024-01-30T19:15:22;64.67;;;30.37;;
58240;SDS011;45058;55.772;38.224;2024-01-30T19:17:49;64.23;;;28.93;;
58240;SDS011;45058;55.772;38.224;2024-01-30T19:20:16;59.43;;;28.30;;
58240;SDS011;45058;55.772;38.224;2024-01-30T19:22:43;73.20;;;28.63;;
58240;SDS011;45058;55.772;38.224;2024-01-30T19:25:09;68.67;;;30.80;;
58240;SDS011;45058;55.772;38.224;2024-01-30T19:27:36;68.80;;;30.93;;
58240;SDS011;45058;55.772;38.224;2024-01-30T19:30:02;70.00;;;31.67;;
58240;SDS011;45058;55.772;38.224;2024-01-30T19:32:30;74.90;;;31.13;;
58240;SDS011;45058;55.772;38.224;2024-01-30T19:34:56;151.00;;;35.80;;
58240;SDS011;45058;55.772;38.224;2024-01-30T19:37:22;81.77;;;34.83;;
58240;SDS011;45058;55.772;38.224;2024-01-30T19:39:51;79.53;;;35.60;;
58240;SDS011;45058;55.772;38.224;2024-01-30T19:42:18;79.23;;;31.00;;
58240;SDS011;45058;55.772;38.224;2024-01-30T19:44:44;65.53;;;28.30;;
58240;SDS011;45058;55.772;38.224;2024-01-30T19:47:10;63.53;;;28.97;;
58240;SDS011;45058;55.772;38.224;2024-01-30T19:49:36;95.33;;;31.27;;
58240;SDS011;45058;55.772;38.224;2024-01-30T19:52:08;66.67;;;29.87;;
58240;SDS011;45058;55.772;38.224;2024-01-30T19:54:37;80.10;;;31.03;;
58240;SDS011;45058;55.772;38.224;2024-01-30T19:57:04;77.47;;;31.37;;
58240;SDS011;45058;55.772;38.224;2024-01-30T19:59:31;75.53;;;31.03;;
58240;SDS011;45058;55.772;38.224;2024-01-30T20:01:58;103.33;;;35.20;;
58240;SDS011;45058;55.772;38.224;2024-01-30T20:04:24;80.80;;;29.57;;
58240;SDS011;45058;55.772;38.224;2024-01-30T20:06:50;81.90;;;33.87;;
58240;SDS011;45058;55.772;38.224;2024-01-30T20:09:16;98.03;;;34.37;;
58240;SDS011;45058;55.772;38.224;2024-01-30T20:11:43;73.03;;;30.77;;
58240;SDS011;45058;55.772;38.224;2024-01-30T20:14:09;78.10;;;30.40;;
58240;SDS011;45058;55.772;38.224;2024-01-30T20:16:36;86.67;;;32.37;;
58240;SDS011;45058;55.772;38.224;2024-01-30T20:19:03;70.43;;;31.07;;
58240;SDS011;45058;55.772;38.224;2024-01-30T20:21:30;73.93;;;29.83;;
58240;SDS011;45058;55.772;38.224;2024-01-30T20:23:57;73.37;;;31.33;;
58240;SDS011;45058;55.772;38.224;2024-01-30T20:26:23;80.13;;;30.47;;
58240;SDS011;45058;55.772;38.224;2024-01-30T20:28:49;78.63;;;30.73;;
58240;SDS011;45058;55.772;38.224;2024-01-30T20:31:23;74.40;;;31.23;;
58240;SDS011;45058;55.772;38.224;2024-01-30T20:33:49;72.13;;;30.73;;
58240;SDS011;45058;55.772;38.224;2024-01-30T20:36:16;79.30;;;30.70;;
58240;SDS011;45058;55.772;38.224;2024-01-30T20:38:43;81.83;;;31.43;;
58240;SDS011;45058;55.772;38.224;2024-01-30T20:41:10;75.43;;;31.00;;
58240;SDS011;45058;55.772;38.224;2024-01-30T20:43:37;79.90;;;34.30;;
58240;SDS011;45058;55.772;38.224;2024-01-30T20:46:04;78.97;;;33.00;;
58240;SDS011;45058;55.772;38.224;2024-01-30T20:48:32;85.57;;;33.37;;
58240;SDS011;45058;55.772;38.224;2024-01-30T20:50:58;72.53;;;31.73;;
58240;SDS011;45058;55.772;38.224;2024-01-30T20:53:24;70.77;;;30.07;;
58240;SDS011;45058;55.772;38.224;2024-01-30T20:55:51;66.13;;;30.80;;
58240;SDS011;45058;55.772;38.224;2024-01-30T20:58:17;72.40;;;31.83;;
58240;SDS011;45058;55.772;38.224;2024-01-30T21:00:44;67.53;;;31.10;;
58240;SDS011;45058;55.772;38.224;2024-01-30T21:03:10;78.23;;;33.60;;
58240;SDS011;45058;55.772;38.224;2024-01-30T21:05:37;67.07;;;30.83;;
58240;SDS011;45058;55.772;38.224;2024-01-30T21:08:03;71.10;;;30.60;;
58240;SDS011;45058;55.772;38.224;2024-01-30T21:10:30;65.73;;;29.37;;
58240;SDS011;45058;55.772;38.224;2024-01-30T21:12:56;64.57;;;28.83;;
58240;SDS011;45058;55.772;38.224;2024-01-30T21:15:23;61.37;;;29.47;;
58240;SDS011;45058;55.772;38.224;2024-01-30T21:17:49;64.93;;;28.63;;
58240;SDS011;45058;55.772;38.224;2024-01-30T21:20:15;58.33;;;27.53;;
58240;SDS011;45058;55.772;38.224;2024-01-30T21:22:42;62.97;;;29.07;;
58240;SDS011;45058;55.772;38.224;2024-01-30T21:25:08;69.57;;;29.77;;
58240;SDS011;45058;55.772;38.224;2024-01-30T21:27:35;59.70;;;28.17;;
58240;SDS011;45058;55.772;38.224;2024-01-30T21:30:04;66.97;;;29.63;;
58240;SDS011;45058;55.772;38.224;2024-01-30T21:32:35;65.50;;;31.57;;
58240;SDS011;45058;55.772;38.224;2024-01-30T21:35:03;61.63;;;28.23;;
58240;SDS011;45058;55.772;38.224;2024-01-30T21:37:31;55.70;;;28.13;;
58240;SDS011;45058;55.772;38.224;2024-01-30T21:40:01;53.87;;;27.13;;
58240;SDS011;45058;55.772;38.224;2024-01-30T21:42:31;70.13;;;30.80;;
58240;SDS011;45058;55.772;38.224;2024-01-30T21:44:57;63.10;;;29.93;;
58240;SDS011;45058;55.772;38.224;2024-01-30T21:47:24;58.33;;;28.13;;
58240;SDS011;45058;55.772;38.224;2024-01-30T21:49:50;64.20;;;31.17;;
58240;SDS011;45058;55.772;38.224;2024-01-30T21:52:17;81.63;;;40.17;;
58240;SDS011;45058;55.772;38.224;2024-01-30T21:54:43;55.53;;;27.50;;
58240;SDS011;45058;55.772;38.224;2024-01-30T21:57:09;55.33;;;28.30;;
58240;SDS011;45058;55.772;38.224;2024-01-30T21:59:35;63.07;;;28.40;;
